Portada
METAR-TAF:

METAR-TAF

Aeroports :

Fairford, Anglaterra

latitud: 51-41N, longitud: 001-47W, altitud: 87 m

Observació

L'informe es va fer fa 15 minuts, a les 16:36 UTC
Vent 12 kt del Oest/Sud-Oest
Temperatura 9°C
Humitat 87%
Pressió 1011 hPa
Visibilitat 10 km o més
Cel cobert a una alçada de 1900 ft

METAR: EGVA 071636Z AUTO 24012KT 9999 OVC019 09/07 A2986 RMK AO2 CIG 018 RWY09 SLP117

Hora: 16:51 (16:51 UTC)


TAF: manca

Observacions i pronòstics meteorològics de més de 4000 aeroports (METAR i TAF).

Les estacions disponibles són els punts grocs i vermells al mapa.

Posi el ratolí al punt desitjat per veure el nom de l'estació.

Feu clic per veure les observacions i els pronòstics meteorològics.

Per canviar el mapa: feu clic els botons verds amb una creu de color negre per apropar; al botó verd amb un guió per allunyar la imatge; o en les fletxes verdes per a mapes adjacents.


METAR-TAF: